ZTL Weather Bulletin
Prepared: 5/22/2015 12:30 PM by: WN valid for 9 hours
FOR ATC PLANNING PURPOSES
High pressure will continue to build in from the northwest, providing VFR conditions under mostly clear skies. Surface winds will be north to northeast at 8-10kts. Flight Hazards: None expected. Altimeters will be above 29.92ins over all ZTL. Ceilings below 050 are not expected.

Restricted Area Convection: R2102...None. R3002...None. R3004...None.
FTUS80 KATL 222157 AAA
KATL 222155Z 2222/2324 02005KT P6SM FEW250
     FM230500 08004KT P6SM SKC
     FM231400 11007KT P6SM FEW230
     FM231700 11009G14KT P6SM FEW045
Remark: NONE.
FTUS42 KGSP 222102 AAA
TAFCLT
TAF AMD
KCLT 222102Z 2221/2318 01006KT P6SM BKN250
     FM230100 00000KT P6SM SKC
     FM231400 06006KT P6SM SKC
     FM231700 10005KT P6SM FEW250=

Remark: NONE.
12-18 Hour Forecast Map
Weather Map
Convective Gate Forecast
Convective Gate Forecast


USA.gov is the U.S. government's official web portal to all federal, state and local government web resources and services.